sensor_id;sensor_type;location;lat;lon;timestamp;temperature;humidity
65985;HTU21D;52748;51.112;5.880;2024-01-25T00:01:40;17.55;77.72
65985;HTU21D;52748;51.112;5.880;2024-01-25T00:04:06;17.54;77.69
65985;HTU21D;52748;51.112;5.880;2024-01-25T00:06:31;17.55;77.66
65985;HTU21D;52748;51.112;5.880;2024-01-25T00:08:57;17.54;77.63
65985;HTU21D;52748;51.112;5.880;2024-01-25T00:11:23;17.55;77.60
65985;HTU21D;52748;51.112;5.880;2024-01-25T00:13:49;17.55;77.58
65985;HTU21D;52748;51.112;5.880;2024-01-25T00:16:15;17.54;77.53
65985;HTU21D;52748;51.112;5.880;2024-01-25T00:18:41;17.53;77.44
65985;HTU21D;52748;51.112;5.880;2024-01-25T00:21:07;17.54;77.52
65985;HTU21D;52748;51.112;5.880;2024-01-25T00:23:33;17.54;77.47
65985;HTU21D;52748;51.112;5.880;2024-01-25T00:25:59;17.53;77.48
65985;HTU21D;52748;51.112;5.880;2024-01-25T00:28:26;17.54;77.40
65985;HTU21D;52748;51.112;5.880;2024-01-25T00:30:52;17.54;77.30
65985;HTU21D;52748;51.112;5.880;2024-01-25T00:33:18;17.53;77.31
65985;HTU21D;52748;51.112;5.880;2024-01-25T00:35:43;17.52;77.27
65985;HTU21D;52748;51.112;5.880;2024-01-25T00:38:09;17.53;77.24
65985;HTU21D;52748;51.112;5.880;2024-01-25T00:40:35;17.52;77.18
65985;HTU21D;52748;51.112;5.880;2024-01-25T00:43:01;17.52;77.15
65985;HTU21D;52748;51.112;5.880;2024-01-25T00:45:27;17.52;77.09
65985;HTU21D;52748;51.112;5.880;2024-01-25T00:47:54;17.52;76.92
65985;HTU21D;52748;51.112;5.880;2024-01-25T00:50:20;17.52;77.03
65985;HTU21D;52748;51.112;5.880;2024-01-25T00:52:50;17.51;76.98
65985;HTU21D;52748;51.112;5.880;2024-01-25T00:55:16;17.50;76.96
65985;HTU21D;52748;51.112;5.880;2024-01-25T00:57:43;17.50;76.91
65985;HTU21D;52748;51.112;5.880;2024-01-25T01:00:09;17.51;76.84
65985;HTU21D;52748;51.112;5.880;2024-01-25T01:02:39;17.50;76.80
65985;HTU21D;52748;51.112;5.880;2024-01-25T01:05:06;17.51;76.75
65985;HTU21D;52748;51.112;5.880;2024-01-25T01:07:32;17.51;76.68
65985;HTU21D;52748;51.112;5.880;2024-01-25T01:09:58;17.50;76.67
65985;HTU21D;52748;51.112;5.880;2024-01-25T01:12:24;17.50;76.55
65985;HTU21D;52748;51.112;5.880;2024-01-25T01:14:49;17.49;76.59
65985;HTU21D;52748;51.112;5.880;2024-01-25T01:17:15;17.50;76.50
65985;HTU21D;52748;51.112;5.880;2024-01-25T01:19:41;17.50;76.42
65985;HTU21D;52748;51.112;5.880;2024-01-25T01:22:07;17.49;76.40
65985;HTU21D;52748;51.112;5.880;2024-01-25T01:24:33;17.49;76.33
65985;HTU21D;52748;51.112;5.880;2024-01-25T01:26:58;17.47;76.30
65985;HTU21D;52748;51.112;5.880;2024-01-25T01:29:24;17.49;76.24
65985;HTU21D;52748;51.112;5.880;2024-01-25T01:31:50;17.49;76.19
65985;HTU21D;52748;51.112;5.880;2024-01-25T01:34:17;17.48;76.14
65985;HTU21D;52748;51.112;5.880;2024-01-25T01:36:46;17.49;76.01
65985;HTU21D;52748;51.112;5.880;2024-01-25T01:39:12;17.48;76.09
65985;HTU21D;52748;51.112;5.880;2024-01-25T01:41:37;17.47;76.05
65985;HTU21D;52748;51.112;5.880;2024-01-25T01:44:03;17.48;76.04
65985;HTU21D;52748;51.112;5.880;2024-01-25T01:46:37;17.49;75.95
65985;HTU21D;52748;51.112;5.880;2024-01-25T01:49:07;17.47;75.97
65985;HTU21D;52748;51.112;5.880;2024-01-25T01:51:34;17.48;75.90
65985;HTU21D;52748;51.112;5.880;2024-01-25T01:54:01;17.47;75.92
65985;HTU21D;52748;51.112;5.880;2024-01-25T01:56:29;17.46;75.96
65985;HTU21D;52748;51.112;5.880;2024-01-25T01:59:03;17.46;75.89
65985;HTU21D;52748;51.112;5.880;2024-01-25T02:01:30;17.46;75.82
65985;HTU21D;52748;51.112;5.880;2024-01-25T02:03:56;17.46;75.75
65985;HTU21D;52748;51.112;5.880;2024-01-25T02:06:24;17.46;75.67
65985;HTU21D;52748;51.112;5.880;2024-01-25T02:08:50;17.47;75.64
65985;HTU21D;52748;51.112;5.880;2024-01-25T02:11:19;17.45;75.65
65985;HTU21D;52748;51.112;5.880;2024-01-25T02:13:44;17.45;75.60
65985;HTU21D;52748;51.112;5.880;2024-01-25T02:16:10;17.45;75.54
65985;HTU21D;52748;51.112;5.880;2024-01-25T02:18:38;17.46;75.49
65985;HTU21D;52748;51.112;5.880;2024-01-25T02:21:03;17.46;75.45
65985;HTU21D;52748;51.112;5.880;2024-01-25T02:23:29;17.46;75.39
65985;HTU21D;52748;51.112;5.880;2024-01-25T02:25:55;17.45;75.43
65985;HTU21D;52748;51.112;5.880;2024-01-25T02:28:21;17.47;75.36
65985;HTU21D;52748;51.112;5.880;2024-01-25T02:30:46;17.44;75.34
65985;HTU21D;52748;51.112;5.880;2024-01-25T02:33:12;17.45;75.29
65985;HTU21D;52748;51.112;5.880;2024-01-25T02:35:38;17.45;75.23
65985;HTU21D;52748;51.112;5.880;2024-01-25T02:38:04;17.44;75.18
65985;HTU21D;52748;51.112;5.880;2024-01-25T02:40:30;17.45;75.02
65985;HTU21D;52748;51.112;5.880;2024-01-25T02:42:55;17.43;75.05
65985;HTU21D;52748;51.112;5.880;2024-01-25T02:45:22;17.44;75.12
65985;HTU21D;52748;51.112;5.880;2024-01-25T02:47:48;17.43;75.02
65985;HTU21D;52748;51.112;5.880;2024-01-25T02:50:14;17.43;74.96
65985;HTU21D;52748;51.112;5.880;2024-01-25T02:52:40;17.43;74.88
65985;HTU21D;52748;51.112;5.880;2024-01-25T02:55:06;17.43;74.79
65985;HTU21D;52748;51.112;5.880;2024-01-25T02:57:32;17.43;74.73
65985;HTU21D;52748;51.112;5.880;2024-01-25T02:59:59;17.43;74.71
65985;HTU21D;52748;51.112;5.880;2024-01-25T03:02:24;17.43;74.63
65985;HTU21D;52748;51.112;5.880;2024-01-25T03:04:53;17.41;74.55
65985;HTU21D;52748;51.112;5.880;2024-01-25T03:07:23;17.43;74.51
65985;HTU21D;52748;51.112;5.880;2024-01-25T03:09:49;17.43;74.49
65985;HTU21D;52748;51.112;5.880;2024-01-25T03:12:15;17.40;74.53
65985;HTU21D;52748;51.112;5.880;2024-01-25T03:14:40;17.40;74.46
65985;HTU21D;52748;51.112;5.880;2024-01-25T03:17:06;17.40;74.39
65985;HTU21D;52748;51.112;5.880;2024-01-25T03:19:33;17.41;74.31
65985;HTU21D;52748;51.112;5.880;2024-01-25T03:21:58;17.41;74.28
65985;HTU21D;52748;51.112;5.880;2024-01-25T03:24:26;17.41;74.20
65985;HTU21D;52748;51.112;5.880;2024-01-25T03:26:52;17.40;74.31
65985;HTU21D;52748;51.112;5.880;2024-01-25T03:29:18;17.41;74.18
65985;HTU21D;52748;51.112;5.880;2024-01-25T03:31:43;17.40;74.18
65985;HTU21D;52748;51.112;5.880;2024-01-25T03:34:09;17.39;74.28
65985;HTU21D;52748;51.112;5.880;2024-01-25T03:36:35;17.39;74.15
65985;HTU21D;52748;51.112;5.880;2024-01-25T03:39:01;17.38;74.08
65985;HTU21D;52748;51.112;5.880;2024-01-25T03:41:28;17.40;74.04
65985;HTU21D;52748;51.112;5.880;2024-01-25T03:43:54;17.39;74.00
65985;HTU21D;52748;51.112;5.880;2024-01-25T03:46:20;17.39;73.99
65985;HTU21D;52748;51.112;5.880;2024-01-25T03:48:46;17.38;73.99
65985;HTU21D;52748;51.112;5.880;2024-01-25T03:51:12;17.37;73.93
65985;HTU21D;52748;51.112;5.880;2024-01-25T03:53:38;17.38;73.85
65985;HTU21D;52748;51.112;5.880;2024-01-25T03:56:04;17.37;73.78
65985;HTU21D;52748;51.112;5.880;2024-01-25T03:58:30;17.38;73.73
65985;HTU21D;52748;51.112;5.880;2024-01-25T04:00:55;17.37;73.65
65985;HTU21D;52748;51.112;5.880;2024-01-25T04:03:21;17.39;73.66
65985;HTU21D;52748;51.112;5.880;2024-01-25T04:05:47;17.36;73.85
65985;HTU21D;52748;51.112;5.880;2024-01-25T04:08:13;17.37;73.79
65985;HTU21D;52748;51.112;5.880;2024-01-25T04:10:38;17.36;73.70
65985;HTU21D;52748;51.112;5.880;2024-01-25T04:13:04;17.36;73.64
65985;HTU21D;52748;51.112;5.880;2024-01-25T04:15:32;17.35;73.57
65985;HTU21D;52748;51.112;5.880;2024-01-25T04:17:57;17.36;73.49
65985;HTU21D;52748;51.112;5.880;2024-01-25T04:20:23;17.35;73.44
65985;HTU21D;52748;51.112;5.880;2024-01-25T04:22:49;17.36;73.41
65985;HTU21D;52748;51.112;5.880;2024-01-25T04:25:15;17.36;73.36
65985;HTU21D;52748;51.112;5.880;2024-01-25T04:27:41;17.36;73.35
65985;HTU21D;52748;51.112;5.880;2024-01-25T04:30:07;17.36;73.32
65985;HTU21D;52748;51.112;5.880;2024-01-25T04:32:33;17.36;73.21
65985;HTU21D;52748;51.112;5.880;2024-01-25T04:34:59;17.36;73.41
65985;HTU21D;52748;51.112;5.880;2024-01-25T04:37:25;17.34;73.48
65985;HTU21D;52748;51.112;5.880;2024-01-25T04:39:51;17.36;73.47
65985;HTU21D;52748;51.112;5.880;2024-01-25T04:42:17;17.36;73.44
65985;HTU21D;52748;51.112;5.880;2024-01-25T04:44:43;17.36;73.37
65985;HTU21D;52748;51.112;5.880;2024-01-25T04:47:09;17.35;73.30
65985;HTU21D;52748;51.112;5.880;2024-01-25T04:49:35;17.35;73.23
65985;HTU21D;52748;51.112;5.880;2024-01-25T04:52:01;17.37;73.20
65985;HTU21D;52748;51.112;5.880;2024-01-25T04:54:27;17.36;73.09
65985;HTU21D;52748;51.112;5.880;2024-01-25T04:56:53;17.35;72.99
65985;HTU21D;52748;51.112;5.880;2024-01-25T04:59:20;17.34;73.01
65985;HTU21D;52748;51.112;5.880;2024-01-25T05:01:46;17.34;72.97
65985;HTU21D;52748;51.112;5.880;2024-01-25T05:04:12;17.35;72.94
65985;HTU21D;52748;51.112;5.880;2024-01-25T05:06:38;17.34;73.00
65985;HTU21D;52748;51.112;5.880;2024-01-25T05:09:04;17.35;72.93
65985;HTU21D;52748;51.112;5.880;2024-01-25T05:11:29;17.34;72.96
65985;HTU21D;52748;51.112;5.880;2024-01-25T05:13:55;17.34;72.99
65985;HTU21D;52748;51.112;5.880;2024-01-25T05:16:21;17.33;72.96
65985;HTU21D;52748;51.112;5.880;2024-01-25T05:18:47;17.32;72.90
65985;HTU21D;52748;51.112;5.880;2024-01-25T05:21:13;17.33;72.79
65985;HTU21D;52748;51.112;5.880;2024-01-25T05:23:38;17.33;72.80
65985;HTU21D;52748;51.112;5.880;2024-01-25T05:26:05;17.33;72.73
65985;HTU21D;52748;51.112;5.880;2024-01-25T05:28:31;17.32;72.60
65985;HTU21D;52748;51.112;5.880;2024-01-25T05:30:57;17.31;72.64
65985;HTU21D;52748;51.112;5.880;2024-01-25T05:33:23;17.33;72.45
65985;HTU21D;52748;51.112;5.880;2024-01-25T05:35:49;17.33;72.35
65985;HTU21D;52748;51.112;5.880;2024-01-25T05:38:14;17.30;72.52
65985;HTU21D;52748;51.112;5.880;2024-01-25T05:40:40;17.30;72.40
65985;HTU21D;52748;51.112;5.880;2024-01-25T05:43:06;17.30;72.21
65985;HTU21D;52748;51.112;5.880;2024-01-25T05:45:32;17.32;72.10
65985;HTU21D;52748;51.112;5.880;2024-01-25T05:47:57;17.30;72.08
65985;HTU21D;52748;51.112;5.880;2024-01-25T05:50:23;17.29;72.01
65985;HTU21D;52748;51.112;5.880;2024-01-25T05:52:49;17.29;72.05
65985;HTU21D;52748;51.112;5.880;2024-01-25T05:55:15;17.29;71.91
65985;HTU21D;52748;51.112;5.880;2024-01-25T05:57:42;17.29;71.87
65985;HTU21D;52748;51.112;5.880;2024-01-25T06:00:12;17.30;71.91
65985;HTU21D;52748;51.112;5.880;2024-01-25T06:02:39;17.29;71.89
65985;HTU21D;52748;51.112;5.880;2024-01-25T06:05:05;17.30;71.83
65985;HTU21D;52748;51.112;5.880;2024-01-25T06:07:30;17.29;71.74
65985;HTU21D;52748;51.112;5.880;2024-01-25T06:09:56;17.29;71.64
65985;HTU21D;52748;51.112;5.880;2024-01-25T06:12:22;17.30;71.66
65985;HTU21D;52748;51.112;5.880;2024-01-25T06:14:48;17.29;71.67
65985;HTU21D;52748;51.112;5.880;2024-01-25T06:17:14;17.29;71.73
65985;HTU21D;52748;51.112;5.880;2024-01-25T06:19:39;17.29;71.70
65985;HTU21D;52748;51.112;5.880;2024-01-25T06:22:05;17.29;71.71
65985;HTU21D;52748;51.112;5.880;2024-01-25T06:24:31;17.30;71.71
65985;HTU21D;52748;51.112;5.880;2024-01-25T06:26:57;17.30;71.71
65985;HTU21D;52748;51.112;5.880;2024-01-25T06:29:23;17.31;71.57
65985;HTU21D;52748;51.112;5.880;2024-01-25T06:31:49;17.30;71.82
65985;HTU21D;52748;51.112;5.880;2024-01-25T06:34:15;17.26;66.88
65985;HTU21D;52748;51.112;5.880;2024-01-25T06:36:40;17.01;61.60
65985;HTU21D;52748;51.112;5.880;2024-01-25T06:39:06;16.70;62.16
65985;HTU21D;52748;51.112;5.880;2024-01-25T06:41:33;16.64;65.64
65985;HTU21D;52748;51.112;5.880;2024-01-25T06:43:59;16.66;67.33
65985;HTU21D;52748;51.112;5.880;2024-01-25T06:46:25;16.71;68.57
65985;HTU21D;52748;51.112;5.880;2024-01-25T06:48:51;16.75;69.75
65985;HTU21D;52748;51.112;5.880;2024-01-25T06:51:17;16.78;70.52
65985;HTU21D;52748;51.112;5.880;2024-01-25T06:53:43;16.81;71.08
65985;HTU21D;52748;51.112;5.880;2024-01-25T06:56:09;16.86;71.46
65985;HTU21D;52748;51.112;5.880;2024-01-25T06:58:35;16.89;71.65
65985;HTU21D;52748;51.112;5.880;2024-01-25T07:01:00;16.92;72.06
65985;HTU21D;52748;51.112;5.880;2024-01-25T07:03:26;16.96;72.39
65985;HTU21D;52748;51.112;5.880;2024-01-25T07:05:52;17.01;72.79
65985;HTU21D;52748;51.112;5.880;2024-01-25T07:08:18;16.96;67.19
65985;HTU21D;52748;51.112;5.880;2024-01-25T07:10:44;16.94;68.31
65985;HTU21D;52748;51.112;5.880;2024-01-25T07:13:10;16.96;69.83
65985;HTU21D;52748;51.112;5.880;2024-01-25T07:15:36;16.99;71.00
65985;HTU21D;52748;51.112;5.880;2024-01-25T07:18:02;17.00;71.57
65985;HTU21D;52748;51.112;5.880;2024-01-25T07:20:29;17.01;71.87
65985;HTU21D;52748;51.112;5.880;2024-01-25T07:22:55;17.02;71.99
65985;HTU21D;52748;51.112;5.880;2024-01-25T07:25:20;17.02;72.05
65985;HTU21D;52748;51.112;5.880;2024-01-25T07:27:47;17.04;71.96
65985;HTU21D;52748;51.112;5.880;2024-01-25T07:30:13;17.03;71.94
65985;HTU21D;52748;51.112;5.880;2024-01-25T07:32:40;17.05;71.72
65985;HTU21D;52748;51.112;5.880;2024-01-25T07:35:08;17.05;71.77
65985;HTU21D;52748;51.112;5.880;2024-01-25T07:37:35;17.06;71.70
65985;HTU21D;52748;51.112;5.880;2024-01-25T07:40:01;17.06;71.67
65985;HTU21D;52748;51.112;5.880;2024-01-25T07:42:29;17.07;71.59
65985;HTU21D;52748;51.112;5.880;2024-01-25T07:44:55;17.07;71.64
65985;HTU21D;52748;51.112;5.880;2024-01-25T07:47:20;17.07;71.69
65985;HTU21D;52748;51.112;5.880;2024-01-25T07:49:46;17.08;71.64
65985;HTU21D;52748;51.112;5.880;2024-01-25T07:52:12;17.09;71.67
65985;HTU21D;52748;51.112;5.880;2024-01-25T07:54:38;17.09;71.61
65985;HTU21D;52748;51.112;5.880;2024-01-25T07:57:03;17.10;71.56
65985;HTU21D;52748;51.112;5.880;2024-01-25T07:59:29;17.07;68.75
65985;HTU21D;52748;51.112;5.880;2024-01-25T08:01:55;16.90;65.62
65985;HTU21D;52748;51.112;5.880;2024-01-25T08:04:21;16.76;65.88
65985;HTU21D;52748;51.112;5.880;2024-01-25T08:06:46;16.74;66.90
65985;HTU21D;52748;51.112;5.880;2024-01-25T08:09:12;16.78;67.70
65985;HTU21D;52748;51.112;5.880;2024-01-25T08:11:38;16.86;68.19
65985;HTU21D;52748;51.112;5.880;2024-01-25T08:14:04;16.91;68.62
65985;HTU21D;52748;51.112;5.880;2024-01-25T08:16:30;16.95;68.58
65985;HTU21D;52748;51.112;5.880;2024-01-25T08:18:56;16.94;66.19
65985;HTU21D;52748;51.112;5.880;2024-01-25T08:21:24;16.88;66.27
65985;HTU21D;52748;51.112;5.880;2024-01-25T08:23:50;16.80;66.57
65985;HTU21D;52748;51.112;5.880;2024-01-25T08:26:16;16.71;67.13
65985;HTU21D;52748;51.112;5.880;2024-01-25T08:28:43;16.63;67.64
65985;HTU21D;52748;51.112;5.880;2024-01-25T08:31:10;16.64;68.62
65985;HTU21D;52748;51.112;5.880;2024-01-25T08:33:36;16.73;69.00
65985;HTU21D;52748;51.112;5.880;2024-01-25T08:36:02;16.72;64.92
65985;HTU21D;52748;51.112;5.880;2024-01-25T08:38:28;16.73;67.52
65985;HTU21D;52748;51.112;5.880;2024-01-25T08:40:54;16.81;68.71
65985;HTU21D;52748;51.112;5.880;2024-01-25T08:43:20;16.90;69.29
65985;HTU21D;52748;51.112;5.880;2024-01-25T08:45:46;17.00;69.60
65985;HTU21D;52748;51.112;5.880;2024-01-25T08:48:12;17.08;69.74
65985;HTU21D;52748;51.112;5.880;2024-01-25T08:50:39;17.15;69.73
65985;HTU21D;52748;51.112;5.880;2024-01-25T08:53:05;17.20;69.76
65985;HTU21D;52748;51.112;5.880;2024-01-25T08:55:31;17.28;69.68
65985;HTU21D;52748;51.112;5.880;2024-01-25T08:57:57;17.33;69.66
65985;HTU21D;52748;51.112;5.880;2024-01-25T09:00:23;17.37;69.66
65985;HTU21D;52748;51.112;5.880;2024-01-25T09:02:49;17.41;69.46
65985;HTU21D;52748;51.112;5.880;2024-01-25T09:05:14;17.45;69.88
65985;HTU21D;52748;51.112;5.880;2024-01-25T09:07:40;17.46;70.13
65985;HTU21D;52748;51.112;5.880;2024-01-25T09:10:07;17.47;70.22
65985;HTU21D;52748;51.112;5.880;2024-01-25T09:12:34;17.47;70.32
65985;HTU21D;52748;51.112;5.880;2024-01-25T09:15:01;17.48;70.40
65985;HTU21D;52748;51.112;5.880;2024-01-25T09:17:27;17.50;70.45
65985;HTU21D;52748;51.112;5.880;2024-01-25T09:19:53;17.51;70.51
65985;HTU21D;52748;51.112;5.880;2024-01-25T09:22:19;17.51;70.53
65985;HTU21D;52748;51.112;5.880;2024-01-25T09:24:46;17.51;70.63
65985;HTU21D;52748;51.112;5.880;2024-01-25T09:27:12;17.51;70.63
65985;HTU21D;52748;51.112;5.880;2024-01-25T09:29:42;17.51;70.59
65985;HTU21D;52748;51.112;5.880;2024-01-25T09:32:09;17.52;70.58
65985;HTU21D;52748;51.112;5.880;2024-01-25T09:34:36;17.53;70.53
65985;HTU21D;52748;51.112;5.880;2024-01-25T09:37:02;17.51;70.57
65985;HTU21D;52748;51.112;5.880;2024-01-25T09:39:28;17.52;70.62
65985;HTU21D;52748;51.112;5.880;2024-01-25T09:41:54;17.51;70.73
65985;HTU21D;52748;51.112;5.880;2024-01-25T09:44:20;17.50;70.81
65985;HTU21D;52748;51.112;5.880;2024-01-25T09:46:47;17.50;70.89
65985;HTU21D;52748;51.112;5.880;2024-01-25T09:49:13;17.50;70.90
65985;HTU21D;52748;51.112;5.880;2024-01-25T09:51:40;17.50;70.92
65985;HTU21D;52748;51.112;5.880;2024-01-25T09:54:07;17.50;70.95
65985;HTU21D;52748;51.112;5.880;2024-01-25T09:56:34;17.50;70.97
65985;HTU21D;52748;51.112;5.880;2024-01-25T09:59:01;17.50;71.03
65985;HTU21D;52748;51.112;5.880;2024-01-25T10:01:27;17.50;71.08
65985;HTU21D;52748;51.112;5.880;2024-01-25T10:03:54;17.49;71.11
65985;HTU21D;52748;51.112;5.880;2024-01-25T10:06:23;17.50;71.19
65985;HTU21D;52748;51.112;5.880;2024-01-25T10:08:49;17.49;71.19
65985;HTU21D;52748;51.112;5.880;2024-01-25T10:11:16;17.49;71.26
65985;HTU21D;52748;51.112;5.880;2024-01-25T10:13:46;17.50;71.38
65985;HTU21D;52748;51.112;5.880;2024-01-25T10:16:17;17.51;71.37
65985;HTU21D;52748;51.112;5.880;2024-01-25T10:18:46;17.50;71.35
65985;HTU21D;52748;51.112;5.880;2024-01-25T10:21:13;17.51;71.34
65985;HTU21D;52748;51.112;5.880;2024-01-25T10:23:41;17.49;71.38
65985;HTU21D;52748;51.112;5.880;2024-01-25T10:26:09;17.50;71.46
65985;HTU21D;52748;51.112;5.880;2024-01-25T10:28:35;17.52;71.48
65985;HTU21D;52748;51.112;5.880;2024-01-25T10:31:02;17.51;71.41
65985;HTU21D;52748;51.112;5.880;2024-01-25T10:33:30;17.50;71.48
65985;HTU21D;52748;51.112;5.880;2024-01-25T10:36:01;17.52;71.50
65985;HTU21D;52748;51.112;5.880;2024-01-25T10:38:32;17.50;71.67
65985;HTU21D;52748;51.112;5.880;2024-01-25T10:41:03;17.50;71.61
65985;HTU21D;52748;51.112;5.880;2024-01-25T10:43:30;17.49;71.67
65985;HTU21D;52748;51.112;5.880;2024-01-25T10:45:57;17.49;71.70
65985;HTU21D;52748;51.112;5.880;2024-01-25T10:48:28;17.49;71.65
65985;HTU21D;52748;51.112;5.880;2024-01-25T10:50:55;17.49;71.62
65985;HTU21D;52748;51.112;5.880;2024-01-25T10:53:24;17.49;71.63
65985;HTU21D;52748;51.112;5.880;2024-01-25T10:55:50;17.49;71.58
65985;HTU21D;52748;51.112;5.880;2024-01-25T10:58:16;17.50;71.72
65985;HTU21D;52748;51.112;5.880;2024-01-25T11:00:55;17.49;71.71
65985;HTU21D;52748;51.112;5.880;2024-01-25T11:03:30;17.49;71.64
65985;HTU21D;52748;51.112;5.880;2024-01-25T11:06:09;17.49;71.72
65985;HTU21D;52748;51.112;5.880;2024-01-25T11:08:39;17.48;71.71
65985;HTU21D;52748;51.112;5.880;2024-01-25T11:11:06;17.49;71.74
65985;HTU21D;52748;51.112;5.880;2024-01-25T11:13:33;17.48;71.73
65985;HTU21D;52748;51.112;5.880;2024-01-25T11:16:27;17.48;71.71
65985;HTU21D;52748;51.112;5.880;2024-01-25T11:18:58;17.47;71.67
65985;HTU21D;52748;51.112;5.880;2024-01-25T11:21:45;17.48;71.59
65985;HTU21D;52748;51.112;5.880;2024-01-25T11:24:15;17.47;71.67
65985;HTU21D;52748;51.112;5.880;2024-01-25T11:26:45;17.48;71.44
65985;HTU21D;52748;51.112;5.880;2024-01-25T11:29:16;17.49;71.09
65985;HTU21D;52748;51.112;5.880;2024-01-25T11:31:48;17.49;70.95
65985;HTU21D;52748;51.112;5.880;2024-01-25T11:34:14;17.50;70.39
65985;HTU21D;52748;51.112;5.880;2024-01-25T11:36:44;17.50;70.41
65985;HTU21D;52748;51.112;5.880;2024-01-25T11:39:11;17.48;70.79
65985;HTU21D;52748;51.112;5.880;2024-01-25T11:41:38;17.48;70.98
65985;HTU21D;52748;51.112;5.880;2024-01-25T11:44:04;17.48;71.48
65985;HTU21D;52748;51.112;5.880;2024-01-25T11:46:31;17.49;72.35
65985;HTU21D;52748;51.112;5.880;2024-01-25T11:49:00;17.51;72.71
65985;HTU21D;52748;51.112;5.880;2024-01-25T11:51:26;17.50;70.07
65985;HTU21D;52748;51.112;5.880;2024-01-25T11:53:52;17.50;71.22
65985;HTU21D;52748;51.112;5.880;2024-01-25T11:56:21;17.50;71.98
65985;HTU21D;52748;51.112;5.880;2024-01-25T11:58:49;17.50;72.28
65985;HTU21D;52748;51.112;5.880;2024-01-25T12:01:17;17.51;72.59
65985;HTU21D;52748;51.112;5.880;2024-01-25T12:03:43;17.49;72.86
65985;HTU21D;52748;51.112;5.880;2024-01-25T12:06:09;17.49;72.99
65985;HTU21D;52748;51.112;5.880;2024-01-25T12:08:35;17.48;73.10
65985;HTU21D;52748;51.112;5.880;2024-01-25T12:11:09;17.47;73.03
65985;HTU21D;52748;51.112;5.880;2024-01-25T12:13:38;17.47;73.06
65985;HTU21D;52748;51.112;5.880;2024-01-25T12:16:04;17.47;73.01
65985;HTU21D;52748;51.112;5.880;2024-01-25T12:18:30;17.46;72.97
65985;HTU21D;52748;51.112;5.880;2024-01-25T12:20:59;17.47;73.05
65985;HTU21D;52748;51.112;5.880;2024-01-25T12:23:36;17.48;72.96
65985;HTU21D;52748;51.112;5.880;2024-01-25T12:26:07;17.48;72.95
65985;HTU21D;52748;51.112;5.880;2024-01-25T12:28:34;17.47;72.95
65985;HTU21D;52748;51.112;5.880;2024-01-25T12:31:02;17.46;72.91
65985;HTU21D;52748;51.112;5.880;2024-01-25T12:33:32;17.47;72.87
65985;HTU21D;52748;51.112;5.880;2024-01-25T12:35:58;17.47;72.80
65985;HTU21D;52748;51.112;5.880;2024-01-25T12:38:25;17.45;72.82
65985;HTU21D;52748;51.112;5.880;2024-01-25T12:40:52;17.45;72.81
65985;HTU21D;52748;51.112;5.880;2024-01-25T12:43:20;17.46;72.79
65985;HTU21D;52748;51.112;5.880;2024-01-25T12:45:48;17.44;72.82
65985;HTU21D;52748;51.112;5.880;2024-01-25T12:48:15;17.45;72.79
65985;HTU21D;52748;51.112;5.880;2024-01-25T12:50:41;17.44;72.79
65985;HTU21D;52748;51.112;5.880;2024-01-25T12:53:10;17.44;72.72
65985;HTU21D;52748;51.112;5.880;2024-01-25T12:55:36;17.45;72.64
65985;HTU21D;52748;51.112;5.880;2024-01-25T12:58:02;17.45;72.56
65985;HTU21D;52748;51.112;5.880;2024-01-25T13:00:28;17.45;72.53
65985;HTU21D;52748;51.112;5.880;2024-01-25T13:02:54;17.43;72.51
65985;HTU21D;52748;51.112;5.880;2024-01-25T13:05:20;17.44;72.45
65985;HTU21D;52748;51.112;5.880;2024-01-25T13:07:46;17.44;72.45
65985;HTU21D;52748;51.112;5.880;2024-01-25T13:10:13;17.44;72.44
65985;HTU21D;52748;51.112;5.880;2024-01-25T13:12:39;17.45;72.38
65985;HTU21D;52748;51.112;5.880;2024-01-25T13:15:05;17.45;72.38
65985;HTU21D;52748;51.112;5.880;2024-01-25T13:17:31;17.44;72.47
65985;HTU21D;52748;51.112;5.880;2024-01-25T13:19:57;17.45;72.51
65985;HTU21D;52748;51.112;5.880;2024-01-25T13:22:23;17.44;72.74
65985;HTU21D;52748;51.112;5.880;2024-01-25T13:24:50;17.45;74.22
65985;HTU21D;52748;51.112;5.880;2024-01-25T13:27:17;17.44;76.09
65985;HTU21D;52748;51.112;5.880;2024-01-25T13:29:42;17.47;77.44
65985;HTU21D;52748;51.112;5.880;2024-01-25T13:32:08;17.47;78.31
65985;HTU21D;52748;51.112;5.880;2024-01-25T13:34:34;17.48;78.92
65985;HTU21D;52748;51.112;5.880;2024-01-25T13:37:00;17.48;79.23
65985;HTU21D;52748;51.112;5.880;2024-01-25T13:39:26;17.51;79.46
65985;HTU21D;52748;51.112;5.880;2024-01-25T13:41:52;17.52;79.49
65985;HTU21D;52748;51.112;5.880;2024-01-25T13:44:18;17.52;79.49
65985;HTU21D;52748;51.112;5.880;2024-01-25T13:46:43;17.54;79.46
65985;HTU21D;52748;51.112;5.880;2024-01-25T13:49:09;17.52;79.38
65985;HTU21D;52748;51.112;5.880;2024-01-25T13:51:35;17.52;77.79
65985;HTU21D;52748;51.112;5.880;2024-01-25T13:54:01;17.48;71.83
65985;HTU21D;52748;51.112;5.880;2024-01-25T13:56:27;17.44;70.13
65985;HTU21D;52748;51.112;5.880;2024-01-25T13:58:53;17.40;70.83
65985;HTU21D;52748;51.112;5.880;2024-01-25T14:01:19;17.40;71.79
65985;HTU21D;52748;51.112;5.880;2024-01-25T14:03:45;17.40;72.40
65985;HTU21D;52748;51.112;5.880;2024-01-25T14:06:11;17.38;72.78
65985;HTU21D;52748;51.112;5.880;2024-01-25T14:08:37;17.39;72.93
65985;HTU21D;52748;51.112;5.880;2024-01-25T14:11:04;17.39;73.54
65985;HTU21D;52748;51.112;5.880;2024-01-25T14:13:32;17.40;75.00
65985;HTU21D;52748;51.112;5.880;2024-01-25T14:15:58;17.40;75.99
65985;HTU21D;52748;51.112;5.880;2024-01-25T14:18:26;17.41;76.46
65985;HTU21D;52748;51.112;5.880;2024-01-25T14:20:52;17.43;76.73
65985;HTU21D;52748;51.112;5.880;2024-01-25T14:23:18;17.44;74.75
65985;HTU21D;52748;51.112;5.880;2024-01-25T14:25:44;17.43;74.35
65985;HTU21D;52748;51.112;5.880;2024-01-25T14:28:11;17.41;75.57
65985;HTU21D;52748;51.112;5.880;2024-01-25T14:30:36;17.41;75.58
65985;HTU21D;52748;51.112;5.880;2024-01-25T14:33:04;17.41;76.77
65985;HTU21D;52748;51.112;5.880;2024-01-25T14:35:30;17.45;77.22
65985;HTU21D;52748;51.112;5.880;2024-01-25T14:37:56;17.46;77.61
65985;HTU21D;52748;51.112;5.880;2024-01-25T14:40:23;17.48;78.11
65985;HTU21D;52748;51.112;5.880;2024-01-25T14:42:49;17.49;78.50
65985;HTU21D;52748;51.112;5.880;2024-01-25T14:45:15;17.50;79.06
65985;HTU21D;52748;51.112;5.880;2024-01-25T14:47:41;17.51;78.84
65985;HTU21D;52748;51.112;5.880;2024-01-25T14:50:07;17.53;78.61
65985;HTU21D;52748;51.112;5.880;2024-01-25T14:52:33;17.52;78.51
65985;HTU21D;52748;51.112;5.880;2024-01-25T14:55:03;17.52;78.75
65985;HTU21D;52748;51.112;5.880;2024-01-25T14:57:32;17.52;78.47
65985;HTU21D;52748;51.112;5.880;2024-01-25T14:59:58;17.53;78.43
65985;HTU21D;52748;51.112;5.880;2024-01-25T15:02:23;17.51;78.30
65985;HTU21D;52748;51.112;5.880;2024-01-25T15:04:49;17.50;78.30
65985;HTU21D;52748;51.112;5.880;2024-01-25T15:07:16;17.51;78.34
65985;HTU21D;52748;51.112;5.880;2024-01-25T15:09:42;17.51;78.94
65985;HTU21D;52748;51.112;5.880;2024-01-25T15:12:08;17.52;78.92